createdAt,value
2022-10-13T00:01:38.942Z,14.37
2022-10-13T00:04:08.194Z,14.52
2022-10-13T00:06:38.910Z,14.75
2022-10-13T00:09:08.301Z,14.49
2022-10-13T00:11:37.788Z,14.18
2022-10-13T00:14:07.786Z,14.63
2022-10-13T00:16:37.272Z,14.18
2022-10-13T00:19:06.720Z,14.01
2022-10-13T00:21:37.077Z,14.59
2022-10-13T00:24:06.764Z,14.33
2022-10-13T00:26:36.050Z,14.79
2022-10-13T00:29:05.780Z,14.39
2022-10-13T00:31:35.183Z,14.40
2022-10-13T00:34:04.567Z,14.40
2022-10-13T00:36:34.096Z,14.35
2022-10-13T00:39:05.179Z,14.50
2022-10-13T00:41:34.715Z,14.03
2022-10-13T00:44:06.239Z,13.83
2022-10-13T00:46:37.607Z,14.03
2022-10-13T00:49:08.997Z,13.88
2022-10-13T00:51:42.055Z,14.00
2022-10-13T00:54:15.709Z,13.67
2022-10-13T00:56:46.239Z,13.58
2022-10-13T00:59:23.006Z,14.26
2022-10-13T01:01:52.737Z,14.27
2022-10-13T01:04:24.108Z,13.96
2022-10-13T01:06:54.246Z,14.45
2022-10-13T01:09:25.582Z,13.94
2022-10-13T01:12:03.441Z,13.77
2022-10-13T01:14:37.640Z,13.76
2022-10-13T01:17:14.870Z,13.93
2022-10-13T01:20:17.084Z,14.09
2022-10-13T01:22:58.421Z,14.15
2022-10-13T01:25:36.108Z,14.07
2022-10-13T01:28:30.278Z,13.99
2022-10-13T01:31:04.799Z,14.03
2022-10-13T01:33:39.530Z,14.18
2022-10-13T01:36:17.143Z,14.16
2022-10-13T01:38:49.559Z,13.84
2022-10-13T01:41:22.554Z,13.77
2022-10-13T01:43:55.830Z,13.84
2022-10-13T01:46:29.687Z,13.79
2022-10-13T01:49:01.601Z,13.97
2022-10-13T01:51:31.705Z,13.54
2022-10-13T01:54:01.710Z,13.77
2022-10-13T01:56:30.953Z,14.00
2022-10-13T01:59:02.420Z,13.61
2022-10-13T02:01:45.220Z,13.45
2022-10-13T02:04:25.101Z,13.43
2022-10-13T02:06:56.751Z,13.61
2022-10-13T02:09:32.458Z,13.83
2022-10-13T02:12:07.202Z,13.94
2022-10-13T02:14:39.174Z,13.73
2022-10-13T02:17:10.228Z,13.32
2022-10-13T02:19:40.745Z,13.53
2022-10-13T02:22:10.393Z,13.41
2022-10-13T02:24:39.655Z,13.44
2022-10-13T02:27:09.856Z,13.32
2022-10-13T02:29:51.177Z,13.29
2022-10-13T02:32:22.476Z,13.42
2022-10-13T02:34:52.897Z,13.55
2022-10-13T02:37:25.407Z,13.13
2022-10-13T02:39:54.787Z,13.28
2022-10-13T02:42:24.350Z,13.50
2022-10-13T02:44:54.505Z,13.38
2022-10-13T02:47:25.426Z,13.12
2022-10-13T02:49:54.641Z,12.84
2022-10-13T02:52:24.320Z,13.12
2022-10-13T02:54:53.950Z,13.42
2022-10-13T02:57:23.205Z,13.32
2022-10-13T02:59:52.492Z,13.16
2022-10-13T03:02:24.991Z,13.27
2022-10-13T03:04:54.234Z,13.55
2022-10-13T03:07:24.292Z,13.02
2022-10-13T03:09:53.822Z,13.03
2022-10-13T03:12:23.596Z,12.89
2022-10-13T03:14:53.625Z,13.03
2022-10-13T03:17:24.393Z,12.89
2022-10-13T03:19:54.155Z,13.09
2022-10-13T03:22:23.601Z,12.77
2022-10-13T03:24:53.060Z,12.91
2022-10-13T03:27:22.548Z,12.68
2022-10-13T03:29:52.438Z,12.76
2022-10-13T03:32:22.141Z,12.65
2022-10-13T03:34:53.360Z,12.91
2022-10-13T03:37:24.451Z,12.65
2022-10-13T03:39:54.222Z,12.69
2022-10-13T03:42:23.986Z,13.21
2022-10-13T03:44:56.496Z,12.71
2022-10-13T03:47:29.050Z,12.65
2022-10-13T03:50:00.478Z,13.03
2022-10-13T03:52:29.854Z,13.03
2022-10-13T03:54:59.206Z,12.93
2022-10-13T03:57:29.041Z,13.24
2022-10-13T04:00:00.801Z,13.23
2022-10-13T04:02:33.286Z,13.06
2022-10-13T04:05:08.940Z,12.50
2022-10-13T04:07:38.432Z,12.76
2022-10-13T04:10:12.551Z,12.36
2022-10-13T05:12:48.219Z,12.23
2022-10-13T05:15:21.125Z,12.21
2022-10-13T05:17:50.653Z,12.34
2022-10-13T05:20:21.883Z,11.87
2022-10-13T05:22:51.491Z,11.48
2022-10-13T05:25:23.170Z,11.89
2022-10-13T05:27:55.087Z,11.97
2022-10-13T05:30:25.166Z,12.36
2022-10-13T05:32:58.492Z,12.18
2022-10-13T05:35:29.506Z,12.39
2022-10-13T05:38:01.080Z,12.12
2022-10-13T05:40:30.422Z,11.69
2022-10-13T05:43:02.527Z,12.05
2022-10-13T05:45:37.583Z,12.05
2022-10-13T05:48:07.623Z,12.15
2022-10-13T05:50:38.165Z,12.21
2022-10-13T05:53:08.243Z,11.93
2022-10-13T05:55:37.997Z,12.48
2022-10-13T05:58:09.547Z,12.53
2022-10-13T06:00:39.739Z,12.55
2022-10-13T06:03:13.172Z,12.54
2022-10-13T06:05:45.438Z,12.76
2022-10-13T06:08:17.782Z,12.90
2022-10-13T07:11:12.957Z,12.90
2022-10-13T07:13:47.093Z,12.64
2022-10-13T07:16:17.383Z,12.55
2022-10-13T07:18:49.169Z,12.44
2022-10-13T07:21:18.575Z,13.10
2022-10-13T07:23:48.008Z,13.08
2022-10-13T07:26:19.095Z,13.14
2022-10-13T07:28:49.124Z,13.00
2022-10-13T07:31:21.697Z,13.38
2022-10-13T07:33:52.199Z,13.20
2022-10-13T07:36:22.108Z,13.04
2022-10-13T07:38:53.932Z,13.16
2022-10-13T07:41:25.228Z,12.76
2022-10-13T07:43:57.001Z,12.94
2022-10-13T07:46:26.809Z,13.34
2022-10-13T07:48:56.920Z,13.22
2022-10-13T07:51:26.459Z,13.58
2022-10-13T07:53:56.658Z,13.71
2022-10-13T07:56:28.155Z,13.77
2022-10-13T07:58:57.736Z,13.81
2022-10-13T08:01:27.806Z,13.65
2022-10-13T08:03:57.389Z,13.80
2022-10-13T08:06:27.092Z,13.93
2022-10-13T08:08:57.850Z,13.79
2022-10-13T08:11:29.051Z,13.75
2022-10-13T08:14:01.687Z,13.81
2022-10-13T08:16:32.443Z,13.85
2022-10-13T08:19:02.116Z,13.76
2022-10-13T08:24:22.778Z,13.99
2022-10-13T08:26:53.865Z,14.32
2022-10-13T08:29:24.447Z,14.41
2022-10-13T08:31:55.309Z,14.44
2022-10-13T08:34:25.626Z,14.83
2022-10-13T08:36:57.411Z,14.42
2022-10-13T08:39:27.456Z,14.40
2022-10-13T08:41:59.057Z,14.36
2022-10-13T08:45:15.789Z,14.51
2022-10-13T08:47:34.180Z,14.62
2022-10-13T08:50:05.485Z,14.48
2022-10-13T08:52:50.328Z,14.42
2022-10-13T08:55:26.669Z,14.52
2022-10-13T08:57:57.945Z,14.65
2022-10-13T09:00:27.168Z,14.63
2022-10-13T09:03:01.220Z,14.72
2022-10-13T09:05:36.008Z,14.98
2022-10-13T09:08:07.736Z,14.78
2022-10-13T09:10:49.344Z,14.82
2022-10-13T09:13:21.169Z,14.96
2022-10-13T09:15:52.502Z,14.99
2022-10-13T09:18:31.031Z,15.06
2022-10-13T09:21:20.922Z,15.00
2022-10-13T09:23:52.411Z,15.20
2022-10-13T09:26:25.123Z,15.26
2022-10-13T09:28:58.209Z,15.29
2022-10-13T09:31:30.541Z,15.40
2022-10-13T09:34:01.411Z,15.58
2022-10-13T09:36:31.936Z,15.84
2022-10-13T09:39:10.121Z,15.96
2022-10-13T09:41:39.419Z,15.81
2022-10-13T09:44:15.443Z,16.04
2022-10-13T09:46:53.014Z,16.33
2022-10-13T09:49:35.806Z,16.42
2022-10-13T09:52:07.416Z,16.62
2022-10-13T09:54:48.305Z,17.02
2022-10-13T09:57:27.105Z,17.14
2022-10-13T10:00:04.021Z,17.15
2022-10-13T10:02:37.319Z,17.19
2022-10-13T10:05:15.742Z,17.65
2022-10-13T10:07:47.543Z,17.57
2022-10-13T10:23:41.007Z,18.24
2022-10-13T11:11:37.205Z,20.95
2022-10-13T11:14:29.891Z,21.39
2022-10-13T11:17:17.752Z,21.12
2022-10-13T11:19:49.011Z,21.38
2022-10-13T11:22:24.906Z,21.45
2022-10-13T11:25:00.920Z,21.40
2022-10-13T11:27:49.509Z,21.81
2022-10-13T11:30:43.233Z,22.28
2022-10-13T11:33:35.075Z,22.15
2022-10-13T11:36:39.457Z,22.30
2022-10-13T11:39:38.160Z,22.35
2022-10-13T11:42:20.506Z,22.83
2022-10-13T11:44:55.604Z,22.86
2022-10-13T11:47:47.078Z,23.08
2022-10-13T11:50:23.953Z,23.02
2022-10-13T11:53:12.664Z,22.95
2022-10-13T11:55:50.398Z,23.18
2022-10-13T11:58:23.423Z,23.18
2022-10-13T12:00:56.492Z,22.71
2022-10-13T12:03:28.961Z,23.51
2022-10-13T12:06:01.032Z,22.95
2022-10-13T12:08:32.162Z,23.00
2022-10-13T13:10:23.051Z,23.34
2022-10-13T13:12:54.822Z,23.43
2022-10-13T13:15:35.245Z,23.73
2022-10-13T13:18:24.456Z,23.30
2022-10-13T13:20:54.057Z,24.28
2022-10-13T13:23:24.319Z,24.59
2022-10-13T13:26:08.913Z,23.67
2022-10-13T13:28:49.295Z,23.36
2022-10-13T13:31:25.067Z,23.70
2022-10-13T13:33:54.725Z,23.13
2022-10-13T13:36:25.277Z,22.63
2022-10-13T13:38:55.773Z,22.95
2022-10-13T13:41:31.853Z,23.24
2022-10-13T13:44:01.613Z,22.77
2022-10-13T13:46:32.471Z,22.74
2022-10-13T13:49:02.843Z,21.57
2022-10-13T13:51:32.112Z,21.40
2022-10-13T13:54:02.549Z,22.01
2022-10-13T13:56:33.274Z,21.96
2022-10-13T13:59:02.520Z,21.30
2022-10-13T14:01:32.494Z,21.46
2022-10-13T14:04:03.130Z,21.49
2022-10-13T14:06:32.576Z,21.31
2022-10-13T14:09:02.957Z,21.14
2022-10-13T14:11:34.176Z,21.07
2022-10-13T14:14:03.510Z,20.88
2022-10-13T14:16:32.757Z,20.88
2022-10-13T14:19:02.343Z,21.05
2022-10-13T14:21:32.044Z,20.76
2022-10-13T14:24:01.405Z,20.65
2022-10-13T14:26:32.632Z,20.56
2022-10-13T14:29:01.907Z,20.55
2022-10-13T14:31:31.583Z,20.16
2022-10-13T14:34:01.170Z,20.11
2022-10-13T14:36:30.870Z,19.97
2022-10-13T14:39:00.064Z,19.91
2022-10-13T14:41:29.303Z,20.15
2022-10-13T14:44:00.169Z,20.10
2022-10-13T14:46:29.414Z,19.81
2022-10-13T14:48:59.081Z,19.85
2022-10-13T14:51:28.598Z,19.91
2022-10-13T14:53:57.806Z,19.72
2022-10-13T14:56:30.065Z,19.75
2022-10-13T14:59:02.725Z,19.58
2022-10-13T15:01:33.568Z,19.75
2022-10-13T15:04:03.475Z,19.69
2022-10-13T15:06:33.422Z,19.63
2022-10-13T15:09:03.138Z,19.69
2022-10-13T15:11:32.623Z,19.46
2022-10-13T15:14:03.366Z,19.22
2022-10-13T15:16:34.005Z,19.22
2022-10-13T15:19:03.998Z,19.32
2022-10-13T15:21:35.975Z,19.26
2022-10-13T15:24:05.702Z,19.32
2022-10-13T15:26:36.873Z,19.08
2022-10-13T15:29:07.381Z,19.18
2022-10-13T15:31:37.151Z,19.16
2022-10-13T15:34:06.547Z,19.15
2022-10-13T15:36:36.061Z,19.00
2022-10-13T15:39:05.659Z,18.81
2022-10-13T15:41:34.577Z,18.81
2022-10-13T15:44:03.808Z,18.81
2022-10-13T15:46:34.494Z,18.70
2022-10-13T15:49:03.704Z,18.66
2022-10-13T15:51:33.529Z,18.64
2022-10-13T15:54:03.141Z,18.58
2022-10-13T15:56:33.402Z,18.45
2022-10-13T15:59:02.905Z,18.36
2022-10-13T16:01:33.541Z,18.25
2022-10-13T16:04:02.975Z,18.08
2022-10-13T16:06:33.959Z,17.97
2022-10-13T16:09:03.616Z,17.86
2022-10-13T16:11:32.850Z,17.77
2022-10-13T16:14:02.593Z,17.66
2022-10-13T16:16:33.627Z,17.51
2022-10-13T16:19:03.400Z,17.48
2022-10-13T16:21:32.709Z,17.36
2022-10-13T16:24:01.940Z,17.27
2022-10-13T16:26:31.155Z,17.16
2022-10-13T16:29:00.658Z,17.10
2022-10-13T16:31:30.724Z,17.09
2022-10-13T16:34:01.393Z,17.02
2022-10-13T16:36:31.330Z,16.89
2022-10-13T16:39:01.661Z,16.89
2022-10-13T16:41:31.185Z,16.91
2022-10-13T16:44:00.388Z,16.80
2022-10-13T16:46:30.200Z,16.81
2022-10-13T16:49:00.707Z,16.86
2022-10-13T16:51:30.291Z,16.67
2022-10-13T16:54:04.229Z,16.68
2022-10-13T16:56:38.519Z,16.63
2022-10-13T16:59:44.974Z,16.57
2022-10-13T17:02:17.903Z,16.69
2022-10-13T17:04:57.469Z,16.78
2022-10-13T17:07:32.011Z,16.83
2022-10-13T17:10:08.923Z,16.79
2022-10-13T17:12:38.523Z,16.71
2022-10-13T17:15:12.955Z,16.65
2022-10-13T17:17:42.791Z,16.61
2022-10-13T17:20:14.413Z,16.57
2022-10-13T17:22:43.600Z,16.49
2022-10-13T17:25:13.763Z,16.50
2022-10-13T17:27:43.314Z,16.37
2022-10-13T17:30:15.357Z,16.39
2022-10-13T17:32:44.731Z,16.34
2022-10-13T17:35:18.041Z,16.34
2022-10-13T17:37:48.138Z,16.19
2022-10-13T17:40:17.484Z,16.21
2022-10-13T17:42:46.875Z,16.31
2022-10-13T17:45:17.808Z,16.29
2022-10-13T17:47:49.882Z,16.29
2022-10-13T17:50:21.273Z,16.13
2022-10-13T17:52:50.737Z,16.20
2022-10-13T17:55:20.465Z,16.02
2022-10-13T17:57:51.437Z,15.87
2022-10-13T18:00:21.268Z,15.90
2022-10-13T18:02:52.919Z,15.89
2022-10-13T18:05:25.145Z,15.99
2022-10-13T18:07:59.512Z,15.93
2022-10-13T18:11:03.454Z,15.86
2022-10-13T18:13:28.476Z,15.70
2022-10-13T18:16:02.458Z,15.66
2022-10-13T18:18:32.446Z,15.64
2022-10-13T18:21:05.366Z,15.63
2022-10-13T18:23:35.196Z,15.63
2022-10-13T18:26:09.129Z,15.61
2022-10-13T18:28:40.487Z,15.80
2022-10-13T18:31:12.323Z,15.91
2022-10-13T18:33:42.125Z,15.76
2022-10-13T18:36:19.823Z,15.86
2022-10-13T18:38:50.026Z,15.65
2022-10-13T18:41:19.896Z,15.48
2022-10-13T18:43:49.132Z,15.68
2022-10-13T18:46:21.668Z,15.43
2022-10-13T18:48:51.055Z,15.35
2022-10-13T18:51:22.225Z,15.34
2022-10-13T18:53:52.055Z,15.35
2022-10-13T18:56:22.993Z,15.40
2022-10-13T18:58:58.463Z,15.31
2022-10-13T19:01:33.000Z,15.26
2022-10-13T19:04:02.979Z,15.39
2022-10-13T19:06:35.590Z,15.32
2022-10-13T19:09:10.355Z,15.48
2022-10-13T19:11:40.326Z,15.34
2022-10-13T19:14:11.462Z,15.24
2022-10-13T19:16:42.894Z,15.16
2022-10-13T19:19:15.529Z,15.43
2022-10-13T19:21:47.464Z,15.34
2022-10-13T19:24:16.764Z,15.18
2022-10-13T19:26:46.153Z,15.23
2022-10-13T19:29:16.229Z,15.18
2022-10-13T19:31:45.962Z,15.16
2022-10-13T19:34:16.193Z,15.03
2022-10-13T19:36:48.100Z,15.13
2022-10-13T19:39:20.070Z,15.03
2022-10-13T19:41:50.111Z,15.08
2022-10-13T19:44:21.725Z,15.22
2022-10-13T19:46:51.138Z,15.10
2022-10-13T19:49:21.653Z,15.25
2022-10-13T19:51:54.027Z,15.37
2022-10-13T19:54:24.184Z,15.22
2022-10-13T19:56:54.056Z,15.07
2022-10-13T19:59:24.148Z,14.93
2022-10-13T20:01:53.533Z,15.09
2022-10-13T20:04:25.151Z,14.91
2022-10-13T20:06:55.860Z,14.87
2022-10-13T20:09:25.453Z,14.84
2022-10-13T20:11:54.592Z,14.91
2022-10-13T20:14:23.849Z,15.14
2022-10-13T20:16:53.524Z,15.33
2022-10-13T20:19:22.751Z,15.06
2022-10-13T20:21:53.003Z,14.98
2022-10-13T20:24:23.928Z,15.08
2022-10-13T20:26:53.170Z,14.78
2022-10-13T20:29:22.374Z,14.72
2022-10-13T20:31:51.643Z,14.60
2022-10-13T20:34:20.848Z,14.95
2022-10-13T20:36:52.144Z,14.96
2022-10-13T20:39:23.047Z,14.72
2022-10-13T20:41:52.314Z,14.90
2022-10-13T20:44:21.456Z,14.60
2022-10-13T20:46:52.675Z,14.46
2022-10-13T20:49:22.245Z,14.65
2022-10-13T20:51:51.753Z,14.57
2022-10-13T20:54:22.703Z,14.51
2022-10-13T20:56:52.969Z,14.69
2022-10-13T20:59:22.241Z,14.67
2022-10-13T21:01:51.573Z,14.53
2022-10-13T21:04:20.902Z,14.63
2022-10-13T21:06:50.815Z,14.47
2022-10-13T21:09:20.072Z,14.43
2022-10-13T21:11:50.576Z,14.67
2022-10-13T21:14:19.636Z,14.72
2022-10-13T21:16:48.757Z,14.56
2022-10-13T21:19:18.148Z,14.35
2022-10-13T21:21:47.374Z,14.46
2022-10-13T21:24:16.869Z,14.49
2022-10-13T21:26:46.144Z,14.36
2022-10-13T21:29:16.773Z,14.39
2022-10-13T21:31:46.312Z,14.59
2022-10-13T21:34:15.546Z,14.59
2022-10-13T21:36:45.606Z,14.42
2022-10-13T21:39:15.131Z,14.73
2022-10-13T21:41:44.354Z,14.88
2022-10-13T21:44:16.495Z,14.54
2022-10-13T21:46:45.665Z,14.58
2022-10-13T21:49:14.831Z,15.01
2022-10-13T21:51:44.126Z,14.77
2022-10-13T21:54:15.258Z,14.57
2022-10-13T21:56:44.720Z,14.56
2022-10-13T21:59:14.489Z,14.51
2022-10-13T22:01:45.487Z,14.56
2022-10-13T22:04:16.057Z,14.56
2022-10-13T22:06:46.634Z,14.44
2022-10-13T22:09:16.437Z,14.52
2022-10-13T22:11:45.812Z,14.42
2022-10-13T22:14:17.079Z,14.35
2022-10-13T22:16:49.927Z,14.51
2022-10-13T22:19:20.065Z,14.34
2022-10-13T22:21:50.528Z,14.34
2022-10-13T22:24:21.275Z,14.81
2022-10-13T22:26:51.381Z,14.74
2022-10-13T22:29:22.840Z,14.86
2022-10-13T22:31:57.368Z,14.84
2022-10-13T22:34:27.480Z,14.44
2022-10-13T22:36:57.132Z,14.68
2022-10-13T22:39:26.339Z,14.50
2022-10-13T22:41:55.861Z,14.39
2022-10-13T22:44:25.152Z,14.43
2022-10-13T22:46:55.805Z,14.39
2022-10-13T22:49:25.265Z,14.73
2022-10-13T22:51:54.627Z,14.55
2022-10-13T22:54:23.872Z,14.80
2022-10-13T22:56:53.939Z,14.77
2022-10-13T22:59:23.977Z,14.45
2022-10-13T23:01:55.229Z,14.35
2022-10-13T23:04:24.425Z,14.71
2022-10-13T23:06:53.646Z,14.75
2022-10-13T23:09:22.517Z,14.66
2022-10-13T23:11:53.344Z,14.45
2022-10-13T23:14:25.630Z,14.41
2022-10-13T23:16:56.301Z,14.44
2022-10-13T23:19:25.777Z,14.52
2022-10-13T23:21:55.050Z,14.66
2022-10-13T23:24:23.937Z,14.74
2022-10-13T23:27:00.309Z,14.54
2022-10-13T23:29:29.732Z,14.50
2022-10-13T23:32:00.447Z,14.63
2022-10-13T23:34:29.897Z,14.52
2022-10-13T23:36:59.252Z,14.37
2022-10-13T23:39:29.601Z,14.27
2022-10-13T23:41:59.002Z,14.10
2022-10-13T23:44:29.981Z,13.94
2022-10-13T23:47:00.733Z,13.82
2022-10-13T23:49:29.901Z,14.44
2022-10-13T23:51:59.148Z,14.25
2022-10-13T23:54:28.396Z,14.56
2022-10-13T23:56:58.093Z,14.45
2022-10-13T23:59:27.515Z,14.14
